createdAt,value
2018-11-06T00:00:06.047Z,2.7
2018-11-06T00:00:56.419Z,2.7
2018-11-06T00:01:47.015Z,2.6
2018-11-06T00:02:36.473Z,2.6
2018-11-06T00:03:26.901Z,2.6
2018-11-06T00:04:16.636Z,2.6
2018-11-06T00:05:06.719Z,2.6
2018-11-06T00:05:56.494Z,2.6
2018-11-06T00:06:46.829Z,2.6
2018-11-06T00:25:03.869Z,2.4
2018-11-06T00:25:53.997Z,2.4
2018-11-06T00:26:43.477Z,2.4
2018-11-06T00:27:33.522Z,2.4
2018-11-06T00:28:23.585Z,2.4
2018-11-06T00:29:13.377Z,2.4
2018-11-06T00:30:03.964Z,2.4
2018-11-06T00:30:53.791Z,2.4
2018-11-06T00:31:43.640Z,2.4
2018-11-06T00:32:34.162Z,2.4
2018-11-06T00:33:23.669Z,2.4
2018-11-06T00:34:14.478Z,2.4
2018-11-06T00:35:04.352Z,2.4
2018-11-06T00:35:54.115Z,2.4
2018-11-06T00:36:44.457Z,2.4
2018-11-06T00:37:34.550Z,2.4
2018-11-06T00:38:23.629Z,2.4
2018-11-06T00:39:14.387Z,2.4
2018-11-06T00:40:03.848Z,2.3
2018-11-06T00:40:54.294Z,2.3
2018-11-06T00:41:44.849Z,2.3
2018-11-06T00:42:34.329Z,2.3
2018-11-06T00:43:24.789Z,2.3
2018-11-06T00:44:14.743Z,2.3
2018-11-06T00:45:04.801Z,2.3
2018-11-06T00:45:54.742Z,2.3
2018-11-06T00:46:44.230Z,2.3
2018-11-06T00:47:35.319Z,2.3
2018-11-06T00:48:25.351Z,2.3
2018-11-06T00:49:15.093Z,2.3
2018-11-06T00:50:05.429Z,2.3
2018-11-06T00:50:55.026Z,2.3
2018-11-06T00:51:45.306Z,2.3
2018-11-06T00:52:34.482Z,2.3
2018-11-06T00:53:25.119Z,2.3
2018-11-06T00:54:15.458Z,2.2
2018-11-06T00:55:05.518Z,2.2
2018-11-06T00:55:55.583Z,2.2
2018-11-06T00:56:45.250Z,2.2
2018-11-06T00:57:35.995Z,2.2
2018-11-06T00:58:26.030Z,2.2
2018-11-06T00:59:15.958Z,2.2
2018-11-06T01:00:05.886Z,2.3
2018-11-06T01:00:56.033Z,2.2
2018-11-06T01:01:46.286Z,2.2
2018-11-06T01:02:35.785Z,2.3
2018-11-06T01:03:26.439Z,2.3
2018-11-06T01:04:16.495Z,2.3
2018-11-06T01:05:06.258Z,2.3
2018-11-06T01:05:56.622Z,2.2
2018-11-06T01:06:46.145Z,2.2
2018-11-06T01:07:36.670Z,2.2
2018-11-06T01:08:26.779Z,2.2
2018-11-06T01:09:16.260Z,2.1
2018-11-06T01:10:06.317Z,2.1
2018-11-06T01:10:56.484Z,2.1
2018-11-06T01:11:46.739Z,2.1
2018-11-06T01:12:37.332Z,2.1
2018-11-06T01:13:27.152Z,2.1
2018-11-06T01:14:16.662Z,2
2018-11-06T01:15:07.277Z,2
2018-11-06T01:15:57.016Z,2
2018-11-06T01:16:47.100Z,1.9
2018-11-06T01:17:37.149Z,1.9
2018-11-06T01:18:27.027Z,1.9
2018-11-06T01:19:17.011Z,1.9
2018-11-06T01:20:06.861Z,1.9
2018-11-06T01:20:57.404Z,1.9
2018-11-06T01:21:47.458Z,1.9
2018-11-06T01:22:37.508Z,1.8
2018-11-06T01:23:27.323Z,1.8
2018-11-06T01:24:17.460Z,1.8
2018-11-06T01:25:07.136Z,1.8
2018-11-06T01:25:57.300Z,1.8
2018-11-06T01:26:47.818Z,1.8
2018-11-06T01:27:37.593Z,1.8
2018-11-06T01:28:27.941Z,1.8
2018-11-06T01:29:17.989Z,1.7
2018-11-06T01:30:08.366Z,1.7
2018-11-06T01:30:57.840Z,1.7
2018-11-06T01:31:47.903Z,1.7
2018-11-06T01:32:38.317Z,1.7
2018-11-06T01:33:28.605Z,1.6
2018-11-06T01:34:18.361Z,1.6
2018-11-06T01:35:08.748Z,1.6
2018-11-06T01:35:58.793Z,1.6
2018-11-06T01:36:48.551Z,1.6
2018-11-06T01:37:38.318Z,1.6
2018-11-06T01:38:29.215Z,1.6
2018-11-06T01:39:18.168Z,1.6
2018-11-06T01:40:09.123Z,1.6
2018-11-06T01:40:58.555Z,1.6
2018-11-06T01:41:49.183Z,1.5
2018-11-06T01:42:38.484Z,1.5
2018-11-06T01:43:29.323Z,1.5
2018-11-06T01:44:19.135Z,1.4
2018-11-06T01:45:09.153Z,1.4
2018-11-06T01:45:59.729Z,1.4
2018-11-06T01:46:49.257Z,1.4
2018-11-06T01:47:39.332Z,1.4
2018-11-06T01:48:29.675Z,1.4
2018-11-06T01:49:19.473Z,1.4
2018-11-06T01:50:09.236Z,1.4
2018-11-06T01:50:59.572Z,1.4
2018-11-06T01:51:49.912Z,1.4
2018-11-06T01:52:39.753Z,1.4
2018-11-06T01:53:29.493Z,1.4
2018-11-06T01:54:20.101Z,1.4
2018-11-06T01:55:09.586Z,1.4
2018-11-06T01:56:00.457Z,1.3
2018-11-06T01:56:50.022Z,1.3
2018-11-06T01:57:40.060Z,1.3
2018-11-06T01:58:29.844Z,1.3
2018-11-06T01:59:20.457Z,1.3
2018-11-06T02:00:10.544Z,1.3
2018-11-06T02:01:00.290Z,1.3
2018-11-06T02:01:50.644Z,1.2
2018-11-06T02:02:40.157Z,1.2
2018-11-06T02:03:30.213Z,1.2
2018-11-06T02:04:20.559Z,1.2
2018-11-06T02:05:10.321Z,1.1
2018-11-06T02:06:00.669Z,1.1
2018-11-06T02:06:50.746Z,1.1
2018-11-06T02:07:40.810Z,1.1
2018-11-06T02:08:30.867Z,1.1
2018-11-06T02:09:20.907Z,1.1
2018-11-06T02:10:10.958Z,1.1
2018-11-06T02:11:00.750Z,1.1
2018-11-06T02:11:50.514Z,1.1
2018-11-06T02:12:41.429Z,1.1
2018-11-06T02:13:31.211Z,1.1
2018-11-06T02:14:21.293Z,1
2018-11-06T02:15:11.058Z,1.1
2018-11-06T02:16:01.105Z,1
2018-11-06T02:16:50.877Z,1
2018-11-06T02:17:41.328Z,1
2018-11-06T02:18:31.856Z,1
2018-11-06T02:19:21.953Z,1
2018-11-06T02:20:12.004Z,1
2018-11-06T02:21:02.053Z,1
2018-11-06T02:21:51.803Z,1
2018-11-06T02:22:42.185Z,0.9
2018-11-06T02:23:31.373Z,0.9
2018-11-06T02:24:21.704Z,0.9
2018-11-06T02:25:12.055Z,0.9
2018-11-06T02:26:01.848Z,0.9
2018-11-06T02:26:52.184Z,0.9
2018-11-06T02:27:42.562Z,0.9
2018-11-06T02:28:32.104Z,0.9
2018-11-06T02:29:22.353Z,0.9
2018-11-06T02:30:12.959Z,0.9
2018-11-06T02:31:02.488Z,0.9
2018-11-06T02:31:52.828Z,0.9
2018-11-06T02:32:42.346Z,0.9
2018-11-06T02:33:32.410Z,0.9
2018-11-06T02:34:22.725Z,0.9
2018-11-06T02:35:13.089Z,0.9
2018-11-06T02:36:03.145Z,0.9
2018-11-06T02:36:53.215Z,0.9
2018-11-06T02:37:42.680Z,0.9
2018-11-06T02:38:33.026Z,0.9
2018-11-06T02:39:23.080Z,0.9
2018-11-06T02:40:13.141Z,1
2018-11-06T02:41:03.026Z,0.9
2018-11-06T02:41:53.277Z,0.9
2018-11-06T02:42:43.339Z,0.9
2018-11-06T02:43:33.389Z,0.9
2018-11-06T02:44:23.452Z,0.9
2018-11-06T02:45:13.508Z,0.9
2018-11-06T02:46:03.584Z,0.9
2018-11-06T02:46:53.661Z,0.9
2018-11-06T02:47:43.406Z,0.9
2018-11-06T02:48:34.048Z,1
2018-11-06T02:49:23.809Z,1
2018-11-06T02:50:13.692Z,1
2018-11-06T02:51:03.631Z,0.9
2018-11-06T02:51:53.998Z,1
2018-11-06T02:52:44.067Z,0.9
2018-11-06T02:53:34.146Z,0.9
2018-11-06T02:54:24.261Z,0.9
2018-11-06T02:55:14.512Z,0.9
2018-11-06T02:56:05.162Z,0.9
2018-11-06T02:56:54.639Z,0.9
2018-11-06T02:57:44.410Z,0.9
2018-11-06T02:58:34.484Z,0.9
2018-11-06T02:59:24.258Z,0.9
2018-11-06T03:00:14.845Z,0.9
2018-11-06T03:01:04.933Z,0.9
2018-11-06T03:01:54.701Z,0.9
2018-11-06T03:02:44.880Z,0.9
2018-11-06T03:03:34.360Z,0.9
2018-11-06T03:04:24.614Z,0.8
2018-11-06T03:05:14.963Z,0.8
2018-11-06T03:06:05.005Z,0.8
2018-11-06T03:06:55.604Z,0.8
2018-11-06T03:07:45.372Z,0.8
2018-11-06T03:08:34.928Z,0.8
2018-11-06T03:09:25.543Z,0.8
2018-11-06T03:10:15.398Z,0.8
2018-11-06T03:11:05.116Z,0.8
2018-11-06T03:11:55.438Z,0.8
2018-11-06T03:12:45.514Z,0.8
2018-11-06T03:13:35.553Z,0.8
2018-11-06T03:14:25.333Z,0.8
2018-11-06T03:15:15.417Z,0.7
2018-11-06T03:16:05.752Z,0.7
2018-11-06T03:16:55.781Z,0.7
2018-11-06T03:17:45.879Z,0.7
2018-11-06T03:18:36.201Z,0.7
2018-11-06T03:19:26.005Z,0.7
2018-11-06T03:20:16.060Z,0.7
2018-11-06T03:21:06.179Z,0.7
2018-11-06T03:21:56.160Z,0.7
2018-11-06T03:22:46.540Z,0.7
2018-11-06T03:23:36.544Z,0.7
2018-11-06T03:24:26.646Z,0.6
2018-11-06T03:25:16.729Z,0.6
2018-11-06T03:26:06.758Z,0.6
2018-11-06T03:26:56.431Z,0.6
2018-11-06T03:27:46.593Z,0.6
2018-11-06T03:28:36.927Z,0.6
2018-11-06T03:29:26.989Z,0.6
2018-11-06T03:30:17.049Z,0.5
2018-11-06T03:31:06.863Z,0.5
2018-11-06T03:31:56.606Z,0.5
2018-11-06T03:32:46.945Z,0.5
2018-11-06T03:33:37.293Z,0.4
2018-11-06T03:34:26.749Z,0.4
2018-11-06T03:35:16.846Z,0.4
2018-11-06T03:36:07.194Z,0.4
2018-11-06T03:36:57.534Z,0.4
2018-11-06T03:37:47.314Z,0.4
2018-11-06T03:38:37.369Z,0.4
2018-11-06T03:39:27.724Z,0.4
2018-11-06T03:40:17.001Z,0.4
2018-11-06T03:41:07.368Z,0.4
2018-11-06T03:41:57.896Z,0.4
2018-11-06T03:42:47.391Z,0.4
2018-11-06T03:43:37.738Z,0.3
2018-11-06T03:44:27.798Z,0.3
2018-11-06T03:45:18.148Z,0.3
2018-11-06T03:46:08.153Z,0.3
2018-11-06T03:46:57.989Z,0.3
2018-11-06T03:47:48.306Z,0.3
2018-11-06T03:48:38.075Z,0.3
2018-11-06T03:49:28.427Z,0.3
2018-11-06T03:50:17.728Z,0.3
2018-11-06T03:51:07.750Z,0.3
2018-11-06T03:51:58.350Z,0.2
2018-11-06T03:52:48.695Z,0.2
2018-11-06T03:53:38.462Z,0.2
2018-11-06T03:54:28.772Z,0.1
2018-11-06T03:55:18.237Z,0.1
2018-11-06T03:56:08.352Z,0.1
2018-11-06T03:56:59.241Z,0.1
2018-11-06T03:57:48.755Z,0.1
2018-11-06T03:58:39.114Z,0.1
2018-11-06T03:59:29.132Z,0
2018-11-06T04:00:18.917Z,0
2018-11-06T04:01:08.994Z,0
2018-11-06T04:01:59.613Z,0
2018-11-06T04:02:49.128Z,-0.1
2018-11-06T04:03:39.159Z,-0.1
2018-11-06T04:04:29.486Z,-0.1
2018-11-06T04:05:19.011Z,-0.1
2018-11-06T04:06:09.077Z,-0.1
2018-11-06T04:06:59.411Z,-0.1
2018-11-06T04:07:49.471Z,-0.1
2018-11-06T04:08:39.811Z,-0.1
2018-11-06T04:09:29.865Z,-0.1
2018-11-06T04:10:19.966Z,-0.1
2018-11-06T04:11:10.009Z,-0.2
2018-11-06T04:12:00.324Z,-0.2
2018-11-06T04:12:49.544Z,-0.2
2018-11-06T04:13:39.916Z,-0.2
2018-11-06T04:14:29.484Z,-0.3
2018-11-06T04:15:20.329Z,-0.3
2018-11-06T04:16:10.381Z,-0.3
2018-11-06T04:16:59.864Z,-0.3
2018-11-06T04:17:50.529Z,-0.3
2018-11-06T04:18:39.929Z,-0.3
2018-11-06T04:19:29.744Z,-0.3
2018-11-06T04:20:20.105Z,-0.4
2018-11-06T04:21:10.466Z,-0.4
2018-11-06T04:22:00.788Z,-0.4
2018-11-06T04:22:50.841Z,-0.4
2018-11-06T04:23:40.657Z,-0.4
2018-11-06T04:24:30.383Z,-0.4
2018-11-06T04:25:22.126Z,-0.4
2018-11-06T04:26:10.834Z,-0.4
2018-11-06T04:27:00.589Z,-0.4
2018-11-06T04:27:50.921Z,-0.5
2018-11-06T04:28:40.983Z,-0.5
2018-11-06T04:29:31.340Z,-0.5
2018-11-06T04:30:21.924Z,-0.6
2018-11-06T04:31:11.188Z,-0.6
2018-11-06T04:32:01.529Z,-0.6
2018-11-06T04:32:51.585Z,-0.6
2018-11-06T04:33:40.785Z,-0.6
2018-11-06T04:34:31.405Z,-0.6
2018-11-06T04:35:21.191Z,-0.6
2018-11-06T04:36:11.853Z,-0.6
2018-11-06T04:54:13.560Z,-0.8
2018-11-06T04:55:03.639Z,-0.8
2018-11-06T04:55:52.722Z,-0.8
2018-11-06T04:56:43.472Z,-0.9
2018-11-06T04:57:33.547Z,-0.9
2018-11-06T04:58:23.817Z,-0.9
2018-11-06T04:59:14.224Z,-0.9
2018-11-06T05:05:04.085Z,-1
2018-11-06T05:05:53.624Z,-1
2018-11-06T05:06:44.138Z,-1
2018-11-06T05:07:34.754Z,-1
2018-11-06T05:08:24.566Z,-1
2018-11-06T05:09:14.342Z,-1
2018-11-06T05:10:04.724Z,-1
2018-11-06T05:10:54.746Z,-1
2018-11-06T05:11:44.298Z,-1.1
2018-11-06T05:12:34.115Z,-1.1
2018-11-06T05:13:39.592Z,-1.1
2018-11-06T05:14:14.764Z,-1.1
2018-11-06T05:15:19.716Z,-1.1
2018-11-06T05:15:54.082Z,-1.1
2018-11-06T05:16:44.918Z,-1.1
2018-11-06T05:17:34.656Z,-1.1
2018-11-06T05:18:25.043Z,-1.1
2018-11-06T05:19:14.886Z,-1.1
2018-11-06T05:20:04.821Z,-1.1
2018-11-06T05:20:55.445Z,-1.1
2018-11-06T05:21:45.496Z,-1.1
2018-11-06T05:22:34.840Z,-1.1
2018-11-06T05:23:25.458Z,-1.1
2018-11-06T05:24:15.243Z,-1.1
2018-11-06T05:25:05.763Z,-1.1
2018-11-06T05:25:55.348Z,-1.1
2018-11-06T05:26:45.410Z,-1.1
2018-11-06T05:27:36.144Z,-1.1
2018-11-06T05:28:25.642Z,-1.1
2018-11-06T05:29:15.317Z,-1.1
2018-11-06T05:30:05.856Z,-1.1
2018-11-06T05:30:55.531Z,-1.1
2018-11-06T05:31:45.976Z,-1.1
2018-11-06T05:32:35.669Z,-1.1
2018-11-06T05:33:25.755Z,-1.1
2018-11-06T09:08:42.407Z,59.3
2018-11-06T09:09:31.875Z,59.4
2018-11-06T09:10:22.428Z,59.5
2018-11-06T09:11:12.427Z,59.6
2018-11-06T09:12:02.247Z,59.6
2018-11-06T09:12:52.604Z,59.7
2018-11-06T09:13:42.035Z,59.8
2018-11-06T09:14:32.519Z,59.9
2018-11-06T09:15:22.569Z,59.9
2018-11-06T09:16:12.339Z,60
2018-11-06T09:17:02.739Z,60.1
2018-11-06T09:17:52.737Z,60.2
2018-11-06T09:18:42.426Z,60.3
2018-11-06T09:19:32.754Z,60.4
2018-11-06T09:20:22.798Z,60.5
2018-11-06T09:21:12.599Z,60.6
2018-11-06T09:22:03.236Z,60.8
2018-11-06T09:22:52.715Z,60.8
2018-11-06T09:23:43.051Z,60.9
2018-11-06T09:24:33.193Z,61
2018-11-06T09:25:23.158Z,61.1
2018-11-06T09:26:12.743Z,61.1
2018-11-06T09:27:02.823Z,61.2
2018-11-06T09:27:53.458Z,61.3
2018-11-06T09:28:43.509Z,61.4
2018-11-06T09:29:33.763Z,61.4
2018-11-06T09:30:23.843Z,61.6
2018-11-06T09:31:13.614Z,61.6
2018-11-06T09:32:03.169Z,61.7
2018-11-06T09:32:53.775Z,61.8
2018-11-06T09:33:43.763Z,61.9
2018-11-06T09:34:33.796Z,62
2018-11-06T09:35:23.968Z,62.1
2018-11-06T09:36:13.964Z,62.2
2018-11-06T09:37:04.321Z,62.3
2018-11-06T09:37:53.896Z,62.3
2018-11-06T09:38:44.143Z,62.4
2018-11-06T09:39:34.548Z,62.4
2018-11-06T09:40:24.242Z,62.4
2018-11-06T09:41:14.406Z,62.5
2018-11-06T09:42:04.177Z,62.6
2018-11-06T09:42:54.731Z,62.6
2018-11-06T09:43:44.523Z,62.6
2018-11-06T09:44:33.865Z,62.6
2018-11-06T09:45:24.499Z,62.6
2018-11-06T09:46:14.692Z,62.7
2018-11-06T09:47:04.477Z,62.8
2018-11-06T09:47:54.818Z,62.8
2018-11-06T09:48:45.315Z,62.9
2018-11-06T09:49:34.649Z,63
2018-11-06T09:50:24.514Z,63.1
2018-11-06T09:51:14.482Z,63.2
2018-11-06T09:52:05.973Z,63.3
2018-11-06T09:52:54.871Z,63.3
2018-11-06T09:53:44.949Z,63.4
2018-11-06T09:54:35.300Z,63.5
2018-11-06T09:55:25.172Z,63.6
2018-11-06T09:56:15.144Z,63.6
2018-11-06T09:57:05.759Z,63.7
2018-11-06T09:57:55.536Z,63.8
2018-11-06T09:58:45.314Z,63.8
2018-11-06T09:59:35.981Z,63.8
2018-11-06T10:00:25.545Z,63.9
2018-11-06T10:01:15.884Z,63.9
2018-11-06T10:02:05.647Z,64
2018-11-06T10:02:56.179Z,64
2018-11-06T10:03:46.253Z,64.1
2018-11-06T10:04:35.626Z,64.1
2018-11-06T10:05:26.058Z,64.1
2018-11-06T10:06:17.403Z,64.1
2018-11-06T10:07:07.502Z,64.1
2018-11-06T10:07:56.623Z,64.1
2018-11-06T10:08:46.590Z,64.2
2018-11-06T10:09:36.693Z,64.2
2018-11-06T10:10:26.243Z,64.2
2018-11-06T10:11:16.518Z,64.2
2018-11-06T10:12:06.548Z,64.2
2018-11-06T10:12:56.941Z,64.1
2018-11-06T10:13:47.235Z,64
2018-11-06T10:14:36.248Z,63.9
2018-11-06T10:15:27.159Z,63.7
2018-11-06T10:16:16.853Z,63.6
2018-11-06T10:17:06.756Z,63.5
2018-11-06T10:17:56.995Z,63.4
2018-11-06T10:18:46.489Z,63.4
2018-11-06T10:19:37.095Z,63.4
2018-11-06T10:20:26.674Z,63.5
2018-11-06T10:21:17.251Z,63.5
2018-11-06T10:22:07.268Z,63.6
2018-11-06T10:22:57.047Z,63.6
2018-11-06T10:23:47.231Z,63.7
2018-11-06T10:24:37.995Z,63.7
2018-11-06T10:25:27.795Z,63.8
2018-11-06T10:26:17.587Z,63.7
2018-11-06T10:27:07.403Z,63.6
2018-11-06T10:27:57.984Z,63.5
2018-11-06T10:28:47.785Z,63.4
2018-11-06T10:29:37.830Z,63.2
2018-11-06T10:30:27.603Z,63.1
2018-11-06T10:31:17.372Z,63
2018-11-06T10:32:08.312Z,62.9
2018-11-06T10:32:58.365Z,62.9
2018-11-06T10:33:48.146Z,62.9
2018-11-06T10:34:38.464Z,62.9
2018-11-06T10:35:27.981Z,62.8
2018-11-06T10:36:18.337Z,62.9
2018-11-06T10:37:08.379Z,62.9
2018-11-06T10:37:57.961Z,62.9
2018-11-06T10:38:48.397Z,63
2018-11-06T10:39:38.677Z,63.1
2018-11-06T10:40:28.934Z,63.1
2018-11-06T10:41:18.387Z,63.3
2018-11-06T10:42:08.266Z,63.4
2018-11-06T10:42:58.603Z,63.4
2018-11-06T10:43:49.369Z,63.6
2018-11-06T10:44:39.444Z,63.6
2018-11-06T10:45:28.996Z,63.7
2018-11-06T10:46:18.771Z,63.8
2018-11-06T10:47:09.406Z,63.9
2018-11-06T10:47:58.905Z,63.9
2018-11-06T10:48:49.508Z,64
2018-11-06T10:49:38.998Z,64.1
2018-11-06T10:50:29.363Z,64.1
2018-11-06T10:51:19.501Z,64.1
2018-11-06T10:52:10.041Z,64.1
2018-11-06T10:52:59.231Z,64
2018-11-06T10:53:49.318Z,63.9
2018-11-06T10:54:39.925Z,63.9
2018-11-06T10:55:29.716Z,63.9
2018-11-06T10:56:20.082Z,63.9
2018-11-06T10:57:09.857Z,63.9
2018-11-06T10:58:00.340Z,64
2018-11-06T10:58:49.748Z,64.1
2018-11-06T10:59:40.045Z,64.1
2018-11-06T11:00:29.848Z,64.1
2018-11-06T11:01:20.141Z,64.1
2018-11-06T11:02:10.275Z,64.1
2018-11-06T11:02:59.973Z,64.2
2018-11-06T11:03:50.430Z,64.2
2018-11-06T11:04:40.650Z,64.2
2018-11-06T11:05:30.450Z,64.3
2018-11-06T11:06:20.503Z,64.3
2018-11-06T11:07:10.579Z,64.3
2018-11-06T11:08:00.525Z,64.3
2018-11-06T11:08:50.984Z,64.3
2018-11-06T11:09:40.742Z,64.2
2018-11-06T11:10:31.075Z,64.2
2018-11-06T11:11:20.892Z,64.2
2018-11-06T11:12:10.639Z,64.2
2018-11-06T11:13:01.305Z,64.2
2018-11-06T11:13:50.554Z,64.2
2018-11-06T11:14:41.085Z,64.3
2018-11-06T11:15:30.885Z,64.3
2018-11-06T11:16:21.584Z,64.3
2018-11-06T11:17:11.277Z,64.3
2018-11-06T11:18:01.160Z,64.3
2018-11-06T11:18:51.392Z,64.3
2018-11-06T11:19:41.200Z,64.3
2018-11-06T11:20:31.572Z,64.2
2018-11-06T11:21:21.604Z,64.2
2018-11-06T11:22:11.936Z,64.3
2018-11-06T11:23:01.434Z,64.2
2018-11-06T11:23:51.835Z,64.2
2018-11-06T11:24:41.842Z,64.2
2018-11-06T11:25:32.416Z,64.2
2018-11-06T11:26:21.679Z,64.2
2018-11-06T11:27:12.410Z,64.2
2018-11-06T11:28:02.079Z,64.3
2018-11-06T11:28:52.024Z,64.3
2018-11-06T11:29:41.626Z,64.3
2018-11-06T11:30:31.691Z,64.3
2018-11-06T11:31:22.371Z,64.3
2018-11-06T11:32:12.631Z,64.4
2018-11-06T11:33:02.476Z,64.3
2018-11-06T11:33:52.657Z,64.3
2018-11-06T11:34:41.886Z,64.2
2018-11-06T11:35:32.125Z,64.1
2018-11-06T11:36:22.691Z,64
2018-11-06T11:37:12.991Z,63.9
2018-11-06T11:38:02.901Z,63.8
2018-11-06T11:38:53.158Z,63.8
2018-11-06T11:39:43.011Z,63.6
2018-11-06T11:40:33.073Z,63.6
2018-11-06T11:41:23.073Z,63.5
2018-11-06T11:42:13.346Z,63.4
2018-11-06T11:43:02.899Z,63.3
2018-11-06T11:43:53.269Z,63.3
2018-11-06T11:44:42.615Z,63.3
2018-11-06T11:45:33.635Z,63.3
2018-11-06T11:46:23.431Z,63.2
2018-11-06T11:47:13.469Z,63.1
2018-11-06T11:48:03.815Z,63
2018-11-06T11:48:53.889Z,62.9
2018-11-06T11:49:43.663Z,62.6
2018-11-06T11:50:33.440Z,62.4
2018-11-06T11:51:23.575Z,62.1
2018-11-06T11:52:13.811Z,61.9
2018-11-06T11:53:03.635Z,61.7
2018-11-06T11:53:53.768Z,61.5
2018-11-06T11:54:44.015Z,61.3
2018-11-06T11:55:34.370Z,61.1
2018-11-06T11:56:24.127Z,60.9
2018-11-06T11:57:14.167Z,60.8
2018-11-06T11:58:04.548Z,60.6
2018-11-06T11:58:54.343Z,60.4
2018-11-06T11:59:44.482Z,60.1
2018-11-06T12:00:34.522Z,59.9
2018-11-06T12:01:24.507Z,59.6
2018-11-06T12:02:15.318Z,58.8
2018-11-06T12:03:04.147Z,58.1
2018-11-06T12:03:54.672Z,57.7
2018-11-06T12:04:45.038Z,57.4
2018-11-06T12:05:34.827Z,57.3
2018-11-06T12:06:24.877Z,57.3
2018-11-06T12:07:15.227Z,57.4
2018-11-06T12:08:04.997Z,57.6
2018-11-06T12:08:55.071Z,57.9
2018-11-06T12:09:45.396Z,58.1
2018-11-06T12:10:35.444Z,58.3
2018-11-06T12:11:25.558Z,58.5
2018-11-06T12:12:15.576Z,58.7
2018-11-06T12:13:05.367Z,58.9
2018-11-06T12:13:55.724Z,59.1
2018-11-06T12:14:45.511Z,59.2
2018-11-06T12:15:35.856Z,59.3
2018-11-06T12:16:25.603Z,59.4
2018-11-06T12:17:16.055Z,59.4
2018-11-06T12:18:05.517Z,59.5
2018-11-06T12:18:56.078Z,59.6
2018-11-06T12:19:45.636Z,59.7
2018-11-06T12:20:36.217Z,59.9
2018-11-06T12:21:25.976Z,60
2018-11-06T12:22:15.736Z,60.1
2018-11-06T12:23:06.325Z,60.2
2018-11-06T12:23:56.037Z,60.2
2018-11-06T12:24:46.062Z,60.2
2018-11-06T12:25:37.420Z,60.3
2018-11-06T12:26:26.681Z,60.3
2018-11-06T12:27:16.398Z,60.3
2018-11-06T12:28:05.973Z,60.2
2018-11-06T12:28:55.828Z,60.1
2018-11-06T12:29:46.570Z,60
2018-11-06T12:30:36.637Z,59.8
2018-11-06T12:31:27.016Z,59.8
2018-11-06T12:32:16.760Z,59.7
2018-11-06T12:33:06.832Z,59.6
2018-11-06T12:33:57.185Z,59.5
2018-11-06T12:34:47.042Z,59.4
2018-11-06T12:35:37.293Z,59.3
2018-11-06T12:36:27.584Z,59.3
2018-11-06T12:37:16.832Z,59.1
2018-11-06T12:38:06.990Z,59
2018-11-06T12:38:56.979Z,58.9
2018-11-06T12:39:47.302Z,58.9
2018-11-06T12:40:37.660Z,58.9
2018-11-06T12:41:27.970Z,58.9
2018-11-06T12:42:17.415Z,58.9
2018-11-06T12:43:07.556Z,58.8
2018-11-06T12:43:57.626Z,58.7
2018-11-06T12:45:37.766Z,58.5
2018-11-06T12:46:27.797Z,58.5
2018-11-06T12:47:17.576Z,58.4
2018-11-06T12:48:07.424Z,58.3
2018-11-06T12:48:57.783Z,58.1
2018-11-06T12:49:47.841Z,57.9
2018-11-06T12:51:28.447Z,57.6
2018-11-06T12:52:17.954Z,57.5
2018-11-06T12:53:08.281Z,57.4
2018-11-06T12:53:58.067Z,57.4
2018-11-06T12:54:48.653Z,57.3
2018-11-06T12:55:37.901Z,57.2
2018-11-06T12:56:28.531Z,57
2018-11-06T12:57:18.899Z,56.8
2018-11-06T12:58:08.937Z,56.5
2018-11-06T12:58:58.429Z,56.3
2018-11-06T12:59:48.779Z,56.1
2018-11-06T13:00:38.816Z,55.9
2018-11-06T13:01:28.926Z,55.6
2018-11-06T13:02:18.971Z,55.4
2018-11-06T13:03:09.166Z,55.1
2018-11-06T13:03:58.783Z,54.9
2018-11-06T13:04:48.660Z,54.6
2018-11-06T13:05:38.425Z,54.4
2018-11-06T13:06:29.543Z,54.2
2018-11-06T13:07:19.316Z,53.9
2018-11-06T13:08:09.363Z,53.7
2018-11-06T13:08:59.438Z,53.4
2018-11-06T13:09:49.685Z,53.3
2018-11-06T13:10:39.845Z,53.1
2018-11-06T13:11:29.628Z,52.8
2018-11-06T13:12:19.733Z,52.5
2018-11-06T13:13:09.568Z,52.3
2018-11-06T13:13:59.825Z,52.1
2018-11-06T13:14:49.530Z,51.8
2018-11-06T13:15:40.379Z,51.6
2018-11-06T13:16:30.267Z,51.4
2018-11-06T13:17:20.040Z,51.3
2018-11-06T13:18:09.821Z,51.2
2018-11-06T13:18:59.902Z,51.1
2018-11-06T13:19:49.765Z,50.9
2018-11-06T13:20:40.277Z,50.7
2018-11-06T13:21:30.370Z,50.4
2018-11-06T13:22:20.410Z,50.2
2018-11-06T13:23:10.785Z,49.9
2018-11-06T13:24:00.339Z,49.6
2018-11-06T13:24:50.594Z,49.3
2018-11-06T13:25:40.972Z,49.1
2018-11-06T13:26:31.558Z,48.9
2018-11-06T13:27:21.057Z,48.6
2018-11-06T13:28:10.672Z,48.4
2018-11-06T13:29:00.634Z,48.1
2018-11-06T13:29:50.789Z,47.9
2018-11-06T13:30:40.898Z,47.7
2018-11-06T13:31:31.092Z,47.4
2018-11-06T13:32:20.997Z,47.1
2018-11-06T13:33:11.209Z,46.8
2018-11-06T13:34:00.972Z,46.4
2018-11-06T13:34:51.614Z,46.2
2018-11-06T13:35:41.281Z,45.9
2018-11-06T13:36:31.447Z,45.7
2018-11-06T13:37:21.602Z,45.4
2018-11-06T13:38:11.884Z,45.1
2018-11-06T13:39:01.929Z,44.9
2018-11-06T13:39:51.986Z,44.6
2018-11-06T13:40:41.472Z,44.3
2018-11-06T13:41:32.116Z,44
2018-11-06T13:42:21.767Z,43.7
2018-11-06T13:43:12.202Z,43.4
2018-11-06T13:44:02.320Z,43.2
2018-11-06T13:44:52.539Z,43
2018-11-06T13:45:43.078Z,42.8
2018-11-06T13:46:31.909Z,42.6
2018-11-06T13:47:22.541Z,42.3
2018-11-06T13:48:11.921Z,42
2018-11-06T13:49:02.391Z,41.7
2018-11-06T13:49:52.441Z,41.4
2018-11-06T13:50:43.025Z,41.3
2018-11-06T14:07:32.885Z,36.3
2018-11-06T14:08:22.382Z,36.1
2018-11-06T14:09:12.739Z,35.9
2018-11-06T14:10:03.377Z,35.7
2018-11-06T14:10:53.124Z,35.4
2018-11-06T14:11:42.907Z,35.3
2018-11-06T14:12:33.264Z,35.1
2018-11-06T14:13:23.302Z,34.8
2018-11-06T14:14:13.385Z,34.6
2018-11-06T14:15:03.429Z,34.4
2018-11-06T14:15:53.477Z,34.2
2018-11-06T14:16:43.428Z,33.9
2018-11-06T14:17:33.038Z,33.8
2018-11-06T14:18:23.946Z,33.5
2018-11-06T14:19:13.816Z,33.3
2018-11-06T14:20:04.059Z,33
2018-11-06T14:20:53.899Z,32.7
2018-11-06T14:21:44.256Z,32.4
2018-11-06T14:22:33.712Z,32.2
2018-11-06T14:23:23.756Z,31.9
2018-11-06T14:24:14.389Z,31.7
2018-11-06T14:25:04.184Z,31.4
2018-11-06T14:25:53.941Z,31.2
2018-11-06T14:26:44.023Z,30.9
2018-11-06T14:27:35.060Z,30.8
2018-11-06T14:28:24.432Z,30.5
2018-11-06T14:29:14.281Z,30.3
2018-11-06T14:30:04.830Z,30.1
2018-11-06T14:30:54.113Z,29.9
2018-11-06T14:31:44.756Z,29.6
2018-11-06T14:32:34.144Z,29.5
2018-11-06T14:33:24.195Z,29.3
2018-11-06T14:34:14.589Z,29.1
2018-11-06T14:35:05.000Z,28.9
2018-11-06T14:35:55.879Z,28.7
2018-11-06T14:36:44.720Z,28.4
2018-11-06T14:37:34.502Z,28.2
2018-11-06T14:38:25.139Z,27.9
2018-11-06T14:39:14.914Z,27.7
2018-11-06T14:40:04.487Z,27.5
2018-11-06T14:40:55.322Z,27.3
2018-11-06T14:41:44.896Z,27.1
2018-11-06T14:42:35.200Z,26.8
2018-11-06T14:43:25.584Z,26.6
2018-11-06T14:44:15.162Z,26.4
2018-11-06T14:45:05.356Z,26.2
2018-11-06T14:45:55.999Z,25.9
2018-11-06T14:46:45.752Z,25.8
2018-11-06T14:47:35.952Z,25.5
2018-11-06T14:48:25.839Z,25.3
2018-11-06T14:49:15.886Z,25.1
2018-11-06T14:50:06.290Z,24.9
2018-11-06T14:50:56.334Z,24.7
2018-11-06T14:51:45.836Z,24.4
2018-11-06T14:52:36.188Z,24.3
2018-11-06T14:53:26.198Z,24
2018-11-06T14:54:15.996Z,23.8
2018-11-06T14:55:06.696Z,23.6
2018-11-06T14:55:56.680Z,23.4
2018-11-06T14:56:47.218Z,23.2
2018-11-06T14:57:36.840Z,22.9
2018-11-06T14:58:26.396Z,22.8
2018-11-06T14:59:16.712Z,22.6
2018-11-06T15:00:07.021Z,22.3
2018-11-06T15:00:57.081Z,22.1
2018-11-06T15:01:47.133Z,21.9
2018-11-06T15:02:37.215Z,21.8
2018-11-06T15:03:26.485Z,21.5
2018-11-06T15:04:16.751Z,21.4
2018-11-06T15:05:07.037Z,21.2
2018-11-06T15:05:57.430Z,21
2018-11-06T15:06:47.025Z,20.8
2018-11-06T15:07:37.285Z,20.6
2018-11-06T15:08:27.431Z,20.5
2018-11-06T15:09:17.111Z,20.3
2018-11-06T15:10:06.875Z,20.2
2018-11-06T15:10:57.043Z,20
2018-11-06T15:11:47.612Z,19.8
2018-11-06T15:12:37.667Z,19.7
2018-11-06T15:13:27.522Z,19.6
2018-11-06T15:14:17.782Z,19.4
2018-11-06T15:15:07.647Z,19.3
2018-11-06T15:15:57.307Z,19.1
2018-11-06T15:16:47.465Z,19
2018-11-06T15:17:37.920Z,18.9
2018-11-06T15:18:28.381Z,18.8
2018-11-06T15:19:17.642Z,18.6
2018-11-06T15:20:08.512Z,18.5
2018-11-06T15:20:58.192Z,18.3
2018-11-06T15:21:48.325Z,18.3
2018-11-06T15:22:38.164Z,18.1
2018-11-06T15:23:28.043Z,18
2018-11-06T15:24:18.376Z,17.9
2018-11-06T15:25:08.161Z,17.8
2018-11-06T15:25:58.716Z,17.7
2018-11-06T15:26:48.986Z,17.6
2018-11-06T15:27:38.554Z,17.4
2018-11-06T15:28:28.533Z,17.3
2018-11-06T15:29:18.747Z,17.3
2018-11-06T15:30:09.261Z,17.1
2018-11-06T15:30:59.293Z,17.1
2018-11-06T15:31:49.055Z,16.9
2018-11-06T15:32:38.905Z,16.9
2018-11-06T15:33:28.476Z,16.8
2018-11-06T15:34:18.953Z,16.7
2018-11-06T15:35:09.537Z,16.6
2018-11-06T15:35:58.763Z,16.5
2018-11-06T15:36:49.392Z,16.4
2018-11-06T15:37:39.985Z,16.3
2018-11-06T15:38:29.525Z,16.3
2018-11-06T15:39:20.068Z,16.2
2018-11-06T15:40:09.676Z,16.1
2018-11-06T15:41:00.893Z,16
2018-11-06T15:41:50.652Z,15.9
2018-11-06T15:42:40.373Z,15.9
2018-11-06T15:43:29.896Z,15.8
2018-11-06T15:44:19.674Z,15.7
2018-11-06T15:45:09.805Z,15.6
2018-11-06T15:46:00.351Z,15.6
2018-11-06T15:46:50.162Z,15.5
2018-11-06T15:47:40.316Z,15.4
2018-11-06T15:48:29.779Z,15.4